Time;durP1;ratioP1;P1;durP2;ratioP2;P2;SDS_P1;SDS_P2;PMS_P1;PMS_P2;Temp;Humidity;BMP_temperature;BMP_pressure;BME280_temperature;BME280_humidity;BME280_pressure;Samples;Min_cycle;Max_cycle;Signal;HPM_P1;HPM_P2
2023/08/05 00:02:24;;;;;;;10.48;5.38;;;;;;;26.53;44.73;93421.19;5045110;28;20029;-75
2023/08/05 00:04:49;;;;;;;13.95;6.22;;;;;;;26.50;44.43;93417.34;5045039;28;20025;-75
2023/08/05 00:07:15;;;;;;;6.43;5.03;;;;;;;26.44;45.56;93416.31;5044927;28;20089;-75
2023/08/05 00:09:40;;;;;;;13.27;5.22;;;;;;;26.39;45.05;93406.63;5044761;28;20069;-75
2023/08/05 00:12:06;;;;;;;8.43;4.80;;;;;;;26.37;44.80;93409.03;5044855;28;20029;-75
2023/08/05 00:14:35;;;;;;;8.90;5.55;;;;;;;26.31;45.00;93405.25;5044706;28;20049;-75
2023/08/05 00:17:00;;;;;;;6.78;4.95;;;;;;;26.25;45.83;93401.50;5044677;28;20067;-75
2023/08/05 00:19:26;;;;;;;8.77;5.72;;;;;;;26.20;45.28;93391.84;5044727;28;20014;-75
2023/08/05 00:21:52;;;;;;;11.52;5.70;;;;;;;26.14;45.44;93396.28;5044626;28;20049;-75
2023/08/05 00:24:17;;;;;;;8.60;5.70;;;;;;;26.12;46.31;93393.22;5044658;28;20084;-75
2023/08/05 00:26:43;;;;;;;7.45;4.60;;;;;;;26.10;45.43;93395.59;5044530;28;20033;-75
2023/08/05 00:29:09;;;;;;;8.18;5.22;;;;;;;26.05;47.21;93392.59;5044666;28;20345;-75
2023/08/05 00:31:35;;;;;;;8.02;5.22;;;;;;;26.03;45.76;93398.47;5044550;28;20216;-75
2023/08/05 00:34:00;;;;;;;9.75;4.97;;;;;;;26.03;45.27;93387.53;5044387;28;20067;-75
2023/08/05 00:36:26;;;;;;;10.65;5.15;;;;;;;25.99;45.77;93393.09;5044091;28;20025;-76
2023/08/05 00:38:51;;;;;;;9.27;5.18;;;;;;;25.94;46.55;93387.38;5044356;28;20327;-75
2023/08/05 00:41:17;;;;;;;8.23;5.40;;;;;;;25.92;45.98;93390.50;5044356;28;20315;-75
2023/08/05 00:43:43;;;;;;;8.35;5.20;;;;;;;25.90;45.89;93387.44;5044232;28;20227;-75
2023/08/05 00:46:10;;;;;;;7.18;5.70;;;;;;;25.78;46.48;93386.09;5043955;28;20041;-75
2023/08/05 00:48:36;;;;;;;9.48;5.40;;;;;;;25.80;46.84;93383.69;5044173;28;20033;-75
2023/08/05 00:51:02;;;;;;;6.43;5.07;;;;;;;25.75;47.44;93375.25;5044041;28;20044;-75
2023/08/05 00:53:30;;;;;;;9.95;4.50;;;;;;;25.71;47.30;93378.06;5044055;28;20093;-75
2023/08/05 00:55:55;;;;;;;9.02;5.38;;;;;;;25.68;47.53;93375.41;5043930;28;20025;-76
2023/08/05 00:58:22;;;;;;;9.25;5.97;;;;;;;25.66;47.20;93370.34;5043990;28;20044;-76
2023/08/05 01:00:48;;;;;;;10.80;5.45;;;;;;;25.64;46.43;93370.00;5043956;28;20029;-76
2023/08/05 01:03:14;;;;;;;12.48;6.20;;;;;;;25.60;47.49;93372.03;5043835;28;20021;-76
2023/08/05 01:05:41;;;;;;;7.50;5.28;;;;;;;25.56;47.49;93361.19;5043756;28;20025;-76
2023/08/05 01:08:08;;;;;;;7.18;5.20;;;;;;;25.55;47.46;93361.63;5043732;28;20029;-76
2023/08/05 01:10:34;;;;;;;11.68;5.20;;;;;;;25.50;47.12;93356.66;5043569;28;20389;-75
2023/08/05 01:13:00;;;;;;;10.20;5.57;;;;;;;25.47;47.27;93360.22;5042547;28;20025;-76
2023/08/05 01:15:26;;;;;;;7.80;4.82;;;;;;;25.47;47.13;93360.22;5042478;28;20032;-76
2023/08/05 01:17:54;;;;;;;7.00;5.53;;;;;;;25.43;48.23;93363.78;5043326;28;20100;-76
2023/08/05 01:20:23;;;;;;;10.15;5.20;;;;;;;25.41;47.33;93357.97;5043631;28;20021;-76
2023/08/05 01:22:56;;;;;;;9.43;5.72;;;;;;;25.32;48.44;93352.34;5043684;28;20021;-76
2023/08/05 01:25:28;;;;;;;16.70;5.13;;;;;;;25.27;48.68;93347.34;5043337;28;20219;-76
2023/08/05 01:27:56;;;;;;;14.90;5.22;;;;;;;25.20;48.55;93344.75;5043368;28;20092;-76
2023/08/05 01:30:25;;;;;;;13.93;4.85;;;;;;;25.16;49.64;93338.59;5043333;28;20105;-76
2023/08/05 01:32:52;;;;;;;7.18;5.05;;;;;;;25.11;48.86;93325.44;5043349;28;20029;-76
2023/08/05 01:35:22;;;;;;;9.48;5.40;;;;;;;25.04;48.33;93334.53;5042231;28;20021;-76
2023/08/05 01:37:47;;;;;;;7.05;5.45;;;;;;;25.03;49.00;93336.50;5043478;28;20021;-77
2023/08/05 01:40:13;;;;;;;8.15;5.32;;;;;;;24.97;49.54;93338.16;5042953;28;20096;-76
2023/08/05 01:42:39;;;;;;;11.35;5.70;;;;;;;24.94;49.21;93338.22;5043111;28;20029;-76
2023/08/05 01:45:05;;;;;;;9.77;5.47;;;;;;;24.90;49.95;93335.56;5042959;28;20327;-75
2023/08/05 01:47:31;;;;;;;14.00;5.75;;;;;;;24.89;48.90;93334.00;5043024;28;20029;-75
2023/08/05 01:49:56;;;;;;;7.40;5.28;;;;;;;24.87;48.59;93333.63;5042032;28;20083;-75
2023/08/05 01:52:22;;;;;;;7.50;5.32;;;;;;;24.89;49.32;93336.72;5041817;28;20036;-75
2023/08/05 01:54:47;;;;;;;13.27;5.25;;;;;;;24.84;48.84;93348.13;5043032;28;20032;-75
2023/08/05 01:57:13;;;;;;;11.48;5.70;;;;;;;24.84;48.70;93353.56;5043003;28;20258;-75
2023/08/05 01:59:38;;;;;;;8.02;4.85;;;;;;;24.72;48.47;93357.66;5041709;28;20331;-76
2023/08/05 02:02:04;;;;;;;6.75;5.00;;;;;;;24.70;49.31;93364.72;5042781;28;20235;-76
2023/08/05 02:04:30;;;;;;;9.07;5.30;;;;;;;24.73;49.22;93366.59;5042666;28;20215;-75
2023/08/05 02:06:55;;;;;;;8.65;5.20;;;;;;;24.69;49.27;93371.34;5041355;28;20069;-75
2023/08/05 02:09:21;;;;;;;8.85;5.40;;;;;;;24.69;49.88;93368.59;5041566;28;20100;-75
2023/08/05 02:11:46;;;;;;;8.27;5.57;;;;;;;24.61;49.35;93355.13;5041615;28;20397;-75
2023/08/05 02:14:12;;;;;;;9.63;6.10;;;;;;;24.61;50.00;93349.66;5042581;28;20045;-75
2023/08/05 02:16:38;;;;;;;8.90;5.72;;;;;;;24.59;49.94;93337.66;5042577;28;20071;-75
2023/08/05 02:19:03;;;;;;;8.52;5.60;;;;;;;24.54;50.40;93349.78;5042650;28;20071;-75
2023/08/05 02:21:29;;;;;;;7.07;5.35;;;;;;;24.48;49.92;93348.69;5042523;28;20093;-74
2023/08/05 02:23:55;;;;;;;9.25;5.90;;;;;;;24.38;50.21;93347.69;5042814;28;20021;-75
2023/08/05 02:26:21;;;;;;;12.00;5.93;;;;;;;24.39;50.28;93343.00;5042606;28;20017;-74
2023/08/05 02:28:47;;;;;;;9.45;6.30;;;;;;;24.20;50.86;93356.13;5042974;28;20036;-75
2023/08/05 02:31:16;;;;;;;8.80;6.80;;;;;;;24.15;51.00;93362.03;5042405;28;20037;-75
2023/08/05 02:33:41;;;;;;;10.80;6.60;;;;;;;24.06;51.42;93372.69;5042547;28;20067;-75
2023/08/05 02:36:07;;;;;;;9.18;7.00;;;;;;;24.07;51.63;93371.47;5042419;28;20021;-75
2023/08/05 02:38:33;;;;;;;12.82;6.35;;;;;;;24.09;51.02;93371.84;5042576;28;20024;-74
2023/08/05 02:40:59;;;;;;;15.48;6.13;;;;;;;24.08;50.51;93364.88;5042571;28;20027;-74
2023/08/05 02:43:24;;;;;;;9.80;6.00;;;;;;;24.08;50.32;93359.44;5041446;28;20029;-74
2023/08/05 02:45:57;;;;;;;12.35;7.00;;;;;;;24.12;50.64;93364.78;5042344;28;20021;-74
2023/08/05 02:48:23;;;;;;;9.90;6.20;;;;;;;24.11;50.66;93363.28;5042476;28;20045;-74
2023/08/05 02:50:53;;;;;;;10.13;5.75;;;;;;;24.10;51.24;93364.44;5042687;28;20215;-74
2023/08/05 02:53:20;;;;;;;10.20;6.57;;;;;;;24.09;51.70;93366.41;5042675;28;20021;-74
2023/08/05 02:55:45;;;;;;;10.75;6.45;;;;;;;24.04;52.23;93361.44;5042342;28;20021;-74
2023/08/05 02:58:11;;;;;;;8.93;6.72;;;;;;;23.98;51.18;93361.13;5042388;28;20028;-74
2023/08/05 03:00:37;;;;;;;10.85;6.68;;;;;;;23.79;51.82;93346.22;5042149;28;20041;-74
2023/08/05 03:03:03;;;;;;;8.45;6.38;;;;;;;23.64;52.75;93353.00;5042437;28;20021;-74
2023/08/05 03:05:28;;;;;;;12.55;7.53;;;;;;;23.54;53.46;93348.47;5042210;28;20259;-74
2023/08/05 03:07:55;;;;;;;12.10;7.38;;;;;;;23.48;53.88;93350.09;5042264;28;20023;-74
2023/08/05 03:10:20;;;;;;;9.75;6.70;;;;;;;23.38;54.52;93349.78;5042293;28;20108;-74
2023/08/05 03:12:46;;;;;;;13.05;6.70;;;;;;;23.41;54.64;93349.00;5042426;28;20021;-75
2023/08/05 03:15:12;;;;;;;10.10;6.93;;;;;;;23.37;55.33;93353.72;5041999;28;20021;-75
2023/08/05 03:17:37;;;;;;;9.43;6.93;;;;;;;23.29;55.67;93360.41;5042197;28;20296;-75
2023/08/05 03:20:07;;;;;;;14.82;7.10;;;;;;;23.25;55.25;93356.97;5043002;28;20085;-75
2023/08/05 03:22:32;;;;;;;17.70;7.90;;;;;;;23.21;55.74;93356.22;5045635;28;20097;-75
2023/08/05 03:24:59;;;;;;;12.93;6.57;;;;;;;23.21;56.11;93364.38;5045679;28;20021;-75
2023/08/05 03:27:25;;;;;;;11.60;8.05;;;;;;;23.15;56.21;93360.56;5045658;28;20111;-75
2023/08/05 03:29:51;;;;;;;10.82;7.70;;;;;;;23.03;56.82;93362.63;5045859;28;20477;-75
2023/08/05 03:32:16;;;;;;;11.65;7.60;;;;;;;23.01;56.55;93358.72;5045709;28;20089;-75
2023/08/05 03:34:42;;;;;;;10.60;6.90;;;;;;;22.97;56.67;93366.91;5045512;28;20028;-75
2023/08/05 03:37:07;;;;;;;13.13;7.57;;;;;;;23.00;56.76;93357.22;5045323;28;20036;-74
2023/08/05 03:39:33;;;;;;;12.93;7.30;;;;;;;22.96;56.88;93359.97;5045675;28;20025;-74
2023/08/05 03:41:58;;;;;;;16.88;7.28;;;;;;;22.97;57.38;93368.88;5045406;28;20353;-74
2023/08/05 03:44:24;;;;;;;12.02;7.32;;;;;;;22.90;57.36;93360.78;5045383;28;20045;-74
2023/08/05 03:46:49;;;;;;;15.18;6.88;;;;;;;22.93;56.89;93365.41;5045461;28;20278;-74
2023/08/05 03:49:15;;;;;;;9.60;7.47;;;;;;;22.91;57.14;93371.25;5045310;28;20025;-75
2023/08/05 03:51:40;;;;;;;10.63;7.03;;;;;;;22.80;57.09;93370.59;5045194;28;20029;-72
2023/08/05 03:54:06;;;;;;;9.65;6.82;;;;;;;22.87;56.08;93362.38;5045273;28;20086;-74
2023/08/05 03:56:31;;;;;;;11.40;7.10;;;;;;;22.93;55.46;93358.03;5045205;28;20283;-73
2023/08/05 03:58:57;;;;;;;12.63;7.55;;;;;;;22.96;55.55;93359.97;5044974;28;20260;-73
2023/08/05 04:01:23;;;;;;;9.70;6.68;;;;;;;22.94;55.95;93361.50;5044839;28;20044;-73
2023/08/05 04:03:50;;;;;;;18.45;7.25;;;;;;;23.02;56.88;93358.38;5045168;28;20208;-73
2023/08/05 04:06:16;;;;;;;9.55;7.10;;;;;;;23.04;57.68;93355.25;5045078;28;20029;-73
2023/08/05 04:08:43;;;;;;;15.55;8.23;;;;;;;23.10;57.87;93353.63;5044666;28;20024;-73
2023/08/05 04:11:08;;;;;;;17.75;7.85;;;;;;;23.17;57.33;93347.34;5044628;28;20113;-73
2023/08/05 04:13:37;;;;;;;13.73;8.10;;;;;;;23.22;57.30;93344.16;5044781;28;20033;-73
2023/08/05 04:16:04;;;;;;;14.20;7.65;;;;;;;23.23;57.23;93357.34;5043640;28;20021;-72
2023/08/05 04:18:33;;;;;;;14.00;7.53;;;;;;;23.32;57.58;93345.22;5044662;28;20097;-72
2023/08/05 04:20:58;;;;;;;17.30;8.05;;;;;;;23.31;57.25;93354.56;5044564;28;20059;-72
2023/08/05 04:23:25;;;;;;;12.50;7.65;;;;;;;23.29;57.54;93367.81;5044700;28;20247;-72
2023/08/05 04:25:50;;;;;;;25.98;8.32;;;;;;;23.36;57.17;93360.31;5044592;28;20311;-72
2023/08/05 04:28:16;;;;;;;13.38;8.32;;;;;;;23.46;57.07;93352.44;5044550;28;20025;-72
2023/08/05 04:30:41;;;;;;;14.88;7.13;;;;;;;23.53;57.53;93344.97;5043044;28;20033;-73
2023/08/05 04:33:08;;;;;;;15.23;7.65;;;;;;;23.59;56.87;93346.06;5044216;28;20028;-72
2023/08/05 04:35:34;;;;;;;14.75;7.22;;;;;;;23.68;57.24;93339.34;5044385;28;20218;-73
2023/08/05 04:38:00;;;;;;;11.88;6.82;;;;;;;23.75;57.23;93352.84;5044383;28;20037;-73
2023/08/05 04:40:26;;;;;;;22.02;7.45;;;;;;;23.81;55.81;93356.69;5044175;28;20028;-73
2023/08/05 04:42:51;;;;;;;17.92;6.32;;;;;;;23.86;55.13;93348.06;5044311;28;20060;-74
2023/08/05 04:45:17;;;;;;;10.73;5.40;;;;;;;23.95;53.89;93342.88;5044458;28;20051;-73
2023/08/05 04:47:42;;;;;;;9.73;5.47;;;;;;;24.07;53.53;93341.53;5042989;28;20060;-74
2023/08/05 04:50:08;;;;;;;10.15;5.13;;;;;;;24.16;52.48;93336.34;5043998;28;20231;-74
2023/08/05 04:52:34;;;;;;;9.68;5.25;;;;;;;24.27;51.54;93344.34;5044057;28;20025;-74
2023/08/05 04:55:09;;;;;;;8.20;5.15;;;;;;;24.39;51.29;93343.00;5044019;28;20333;-74
2023/08/05 04:57:35;;;;;;;14.57;5.20;;;;;;;24.48;50.89;93345.19;5043978;28;20036;-73
2023/08/05 05:00:01;;;;;;;11.55;4.80;;;;;;;24.59;50.67;93354.78;5043736;28;20026;-74
2023/08/05 05:02:26;;;;;;;19.65;5.53;;;;;;;24.63;50.58;93354.72;5043831;28;20289;-73
2023/08/05 05:04:52;;;;;;;7.78;5.05;;;;;;;24.74;50.30;93352.56;5043943;28;20033;-74
2023/08/05 05:07:18;;;;;;;11.25;4.50;;;;;;;24.87;49.45;93354.69;5043966;28;20030;-74
2023/08/05 05:09:44;;;;;;;10.65;5.75;;;;;;;24.95;49.81;93361.56;5043458;28;20076;-74
2023/08/05 05:12:09;;;;;;;12.38;5.05;;;;;;;25.07;49.20;93358.22;5043601;28;20025;-74
2023/08/05 05:14:43;;;;;;;15.10;4.80;;;;;;;25.18;48.45;93355.31;5043796;28;20029;-74
2023/08/05 05:17:08;;;;;;;12.30;4.68;;;;;;;25.25;48.66;93352.47;5043612;28;20169;-74
2023/08/05 05:19:34;;;;;;;11.45;5.18;;;;;;;25.34;48.44;93351.91;5043487;28;20068;-74
2023/08/05 05:22:00;;;;;;;9.27;5.35;;;;;;;25.40;48.14;93355.66;5043498;28;20037;-73
2023/08/05 05:24:25;;;;;;;8.07;4.97;;;;;;;25.47;48.16;93357.50;5042298;28;20029;-75
2023/08/05 05:26:51;;;;;;;20.00;5.43;;;;;;;25.50;48.40;93353.91;5043628;28;20030;-75
2023/08/05 05:29:19;;;;;;;12.50;5.55;;;;;;;25.56;47.95;93360.44;5043388;28;20374;-74
2023/08/05 05:31:45;;;;;;;9.48;5.53;;;;;;;25.57;47.58;93359.25;5043373;28;20263;-74
2023/08/05 05:34:10;;;;;;;7.88;4.60;;;;;;;25.61;47.62;93368.13;5043362;28;20047;-74
2023/08/05 05:36:36;;;;;;;12.65;5.47;;;;;;;25.67;47.68;93354.78;5043166;28;20064;-74
2023/08/05 05:39:04;;;;;;;7.05;5.15;;;;;;;25.71;48.04;93352.75;5043242;28;20223;-74
2023/08/05 05:41:30;;;;;;;11.52;5.43;;;;;;;25.75;48.27;93351.47;5043096;28;20311;-74
2023/08/05 05:43:57;;;;;;;7.70;4.88;;;;;;;25.79;47.41;93351.41;5042504;28;20035;-75
2023/08/05 05:46:23;;;;;;;6.78;4.68;;;;;;;25.83;47.41;93358.31;5043055;28;20045;-75
2023/08/05 05:48:48;;;;;;;20.83;5.97;;;;;;;25.87;47.55;93360.19;5043088;28;20025;-75
2023/08/05 05:51:14;;;;;;;11.40;5.65;;;;;;;25.92;47.60;93362.44;5042973;28;20215;-74
2023/08/05 05:53:39;;;;;;;8.27;5.07;;;;;;;25.99;47.47;93352.16;5042881;28;20018;-75
2023/08/05 05:56:05;;;;;;;9.90;5.30;;;;;;;26.05;47.48;93352.38;5042863;28;20083;-75
2023/08/05 05:58:34;;;;;;;10.38;5.05;;;;;;;25.99;46.94;93354.88;5042944;28;20021;-75
2023/08/05 06:01:00;;;;;;;8.43;4.63;;;;;;;26.06;46.90;93345.75;5042867;28;20033;-75
2023/08/05 06:03:26;;;;;;;9.95;5.70;;;;;;;26.15;46.65;93343.19;5042826;28;20029;-73
2023/08/05 06:05:52;;;;;;;9.90;5.10;;;;;;;26.20;46.74;93344.66;5042867;28;20032;-74
2023/08/05 06:08:17;;;;;;;13.48;5.70;;;;;;;26.19;46.58;93346.59;5042698;28;20052;-76
2023/08/05 06:10:43;;;;;;;9.80;5.30;;;;;;;26.27;47.18;93349.94;5042641;28;20041;-74
2023/08/05 06:13:10;;;;;;;10.38;4.85;;;;;;;26.34;46.56;93355.25;5042620;28;20049;-74
2023/08/05 06:15:40;;;;;;;11.23;4.60;;;;;;;26.41;46.06;93341.41;5042622;28;20079;-74
2023/08/05 06:18:07;;;;;;;11.13;5.22;;;;;;;26.45;45.87;93338.59;5042541;28;20029;-74
2023/08/05 06:20:33;;;;;;;19.77;5.25;;;;;;;26.53;44.70;93339.97;5042569;28;20200;-76
2023/08/05 06:22:59;;;;;;;16.30;5.03;;;;;;;26.53;45.14;93336.47;5042625;28;20044;-73
2023/08/05 06:25:24;;;;;;;23.55;5.75;;;;;;;26.42;45.16;93326.56;5041473;28;20075;-73
2023/08/05 06:27:50;;;;;;;13.45;5.20;;;;;;;26.50;45.23;93335.38;5042601;28;20310;-77
2023/08/05 06:30:15;;;;;;;8.05;5.38;;;;;;;26.59;45.76;93321.88;5042706;28;20076;-74
2023/08/05 06:32:41;;;;;;;7.63;5.00;;;;;;;26.72;45.33;93318.44;5042468;28;20032;-74
2023/08/05 06:35:07;;;;;;;8.32;4.82;;;;;;;26.73;43.91;93317.28;5042578;28;20025;-74
2023/08/05 06:37:32;;;;;;;6.75;4.63;;;;;;;26.72;44.80;93304.78;5042678;28;20025;-77
2023/08/05 06:39:58;;;;;;;13.45;5.72;;;;;;;26.78;45.31;93312.03;5042452;28;20025;-71
2023/08/05 06:42:25;;;;;;;9.90;5.65;;;;;;;26.80;45.41;93306.13;5042634;28;20093;-73
2023/08/05 06:44:51;;;;;;;21.67;4.90;;;;;;;26.80;45.67;93301.44;5042707;28;20088;-73
2023/08/05 06:47:16;;;;;;;7.57;5.35;;;;;;;26.86;44.96;93298.19;5042532;28;20029;-75
2023/08/05 06:49:42;;;;;;;7.03;4.53;;;;;;;26.92;44.42;93289.03;5042319;28;20035;-73
2023/08/05 06:52:08;;;;;;;12.25;5.50;;;;;;;26.97;45.05;93291.25;5042380;28;20017;-73
2023/08/05 06:54:33;;;;;;;9.75;5.40;;;;;;;27.00;44.22;93284.91;5044019;28;20028;-74
2023/08/05 06:56:59;;;;;;;18.45;5.60;;;;;;;27.06;44.07;93281.66;5046124;28;20017;-74
2023/08/05 06:59:26;;;;;;;8.75;5.40;;;;;;;27.12;43.93;93275.22;5046148;28;20223;-74
2023/08/05 07:01:52;;;;;;;12.30;5.00;;;;;;;27.12;44.07;93268.97;5046114;28;20025;-74
2023/08/05 07:04:18;;;;;;;11.02;5.47;;;;;;;27.07;44.26;93270.28;5046366;28;20197;-74
2023/08/05 07:06:44;;;;;;;13.75;5.00;;;;;;;26.92;44.54;93267.16;5046220;28;20088;-74
2023/08/05 07:09:10;;;;;;;7.10;4.47;;;;;;;26.92;44.33;93261.69;5045912;28;20021;-74
2023/08/05 07:11:35;;;;;;;9.27;5.85;;;;;;;27.06;44.47;93259.78;5045902;28;20026;-74
2023/08/05 07:14:01;;;;;;;10.05;5.65;;;;;;;27.18;44.23;93264.50;5046056;28;20025;-74
2023/08/05 07:16:27;;;;;;;8.02;5.68;;;;;;;27.07;44.25;93259.34;5046031;28;20025;-74
2023/08/05 07:18:53;;;;;;;8.70;5.35;;;;;;;27.13;44.23;93270.50;5045845;28;20098;-74
2023/08/05 07:21:19;;;;;;;19.40;6.35;;;;;;;27.28;44.46;93263.47;5044783;28;20286;-74
2023/08/05 07:23:44;;;;;;;8.18;5.32;;;;;;;27.44;44.84;93259.09;5045801;28;20025;-75
2023/08/05 07:26:10;;;;;;;10.02;5.20;;;;;;;27.52;43.80;93253.00;5045657;28;20312;-75
2023/08/05 07:28:36;;;;;;;10.55;5.40;;;;;;;27.49;43.21;93250.38;5045971;28;20049;-75
2023/08/05 07:31:10;;;;;;;9.40;5.50;;;;;;;27.61;44.42;93255.84;5045646;28;20018;-74
2023/08/05 07:33:36;;;;;;;8.20;4.88;;;;;;;27.60;44.14;93248.84;5045430;28;20362;-73
2023/08/05 07:36:09;;;;;;;32.88;7.15;;;;;;;27.70;43.60;93252.47;5045570;28;20026;-73
2023/08/05 07:38:38;;;;;;;12.20;5.85;;;;;;;27.78;42.69;93259.25;5045573;28;20025;-74
2023/08/05 07:41:04;;;;;;;17.92;5.72;;;;;;;27.88;43.65;93262.13;5045221;28;20037;-75
2023/08/05 07:43:32;;;;;;;9.98;5.45;;;;;;;28.01;44.80;93249.97;5045545;28;20263;-73
2023/08/05 07:45:59;;;;;;;9.57;5.68;;;;;;;28.01;43.00;93249.97;5045341;28;20021;-72
2023/08/05 07:48:27;;;;;;;12.77;5.65;;;;;;;28.16;42.24;93238.56;5045342;28;20378;-72
2023/08/05 07:50:53;;;;;;;9.75;5.70;;;;;;;28.29;42.08;93246.75;5045280;28;20013;-73
2023/08/05 07:53:21;;;;;;;8.30;5.20;;;;;;;28.28;42.32;93245.97;5045507;28;20036;-72
2023/08/05 07:55:46;;;;;;;18.58;5.55;;;;;;;28.35;41.29;93236.75;5045198;28;20096;-72
2023/08/05 07:58:12;;;;;;;11.05;6.00;;;;;;;28.47;41.22;93246.16;5045056;28;20029;-72
2023/08/05 08:00:41;;;;;;;8.10;6.03;;;;;;;28.55;41.00;93248.25;5044204;28;20096;-72
2023/08/05 08:03:06;;;;;;;13.48;5.78;;;;;;;28.60;41.16;93249.66;5044851;28;20092;-72
2023/08/05 08:05:32;;;;;;;9.15;6.03;;;;;;;28.63;40.53;93237.81;5044059;28;20025;-72
2023/08/05 08:07:57;;;;;;;8.70;5.75;;;;;;;28.52;39.98;93246.41;5043350;28;20026;-72
2023/08/05 08:10:25;;;;;;;8.77;5.57;;;;;;;28.54;39.97;93238.50;5043626;28;20037;-72
2023/08/05 08:12:52;;;;;;;17.98;6.22;;;;;;;28.63;40.34;93226.84;5044701;28;20033;-72
2023/08/05 08:15:18;;;;;;;17.13;6.15;;;;;;;28.70;39.92;93225.81;5043739;28;20021;-72
2023/08/05 08:17:43;;;;;;;11.93;6.35;;;;;;;28.83;40.03;93228.53;5044313;28;20057;-72
2023/08/05 08:20:09;;;;;;;10.57;5.20;;;;;;;28.94;39.57;93229.69;5043213;28;20049;-72
2023/08/05 08:22:35;;;;;;;10.65;5.85;;;;;;;29.07;39.47;93228.84;5044447;28;20037;-72
2023/08/05 08:25:01;;;;;;;9.07;5.38;;;;;;;29.17;38.73;93230.47;5041350;28;20029;-72
2023/08/05 08:27:26;;;;;;;8.48;5.78;;;;;;;29.20;38.30;93232.31;5041315;28;20041;-72
2023/08/05 08:29:52;;;;;;;8.27;5.38;;;;;;;29.18;38.25;93224.50;5041609;28;20021;-72
2023/08/05 08:32:17;;;;;;;15.48;6.05;;;;;;;29.13;38.78;93218.88;5041942;28;20084;-72
2023/08/05 08:34:43;;;;;;;13.30;6.32;;;;;;;29.12;38.46;93223.56;5041685;28;20450;-72
2023/08/05 08:37:09;;;;;;;22.13;6.15;;;;;;;29.16;39.30;93224.19;5041780;28;20337;-72
2023/08/05 08:39:34;;;;;;;10.82;5.63;;;;;;;29.23;38.74;93228.69;5043617;28;20272;-72
2023/08/05 08:42:00;;;;;;;13.10;6.40;;;;;;;29.29;38.53;93226.88;5044227;28;20092;-72
2023/08/05 08:44:29;;;;;;;22.00;6.47;;;;;;;29.44;38.40;93231.84;5044045;28;20029;-72
2023/08/05 08:46:55;;;;;;;10.35;5.35;;;;;;;29.54;39.07;93219.69;5044327;28;20278;-72
2023/08/05 08:49:21;;;;;;;7.97;5.00;;;;;;;29.62;38.10;93220.94;5044407;28;20017;-72
2023/08/05 08:51:48;;;;;;;12.48;6.70;;;;;;;29.66;37.63;93212.59;5044326;28;20033;-72
2023/08/05 08:54:14;;;;;;;8.32;5.97;;;;;;;29.64;37.96;93209.53;5044056;28;20037;-72
2023/08/05 08:56:40;;;;;;;12.85;5.63;;;;;;;29.37;38.39;93222.66;5043910;28;20021;-72
2023/08/05 08:59:07;;;;;;;11.63;6.15;;;;;;;29.46;38.12;93221.19;5044070;28;20113;-72
2023/08/05 09:01:35;;;;;;;9.50;5.85;;;;;;;29.52;37.81;93213.88;5042645;28;20036;-72
2023/08/05 09:04:02;;;;;;;7.38;5.47;;;;;;;29.49;38.15;93204.56;5043851;28;20037;-72
2023/08/05 09:06:27;;;;;;;10.07;6.03;;;;;;;29.38;38.95;93202.22;5042734;28;20017;-72
2023/08/05 09:08:53;;;;;;;14.23;6.68;;;;;;;29.36;38.89;93210.13;5043718;28;20092;-72
2023/08/05 09:11:18;;;;;;;8.32;5.68;;;;;;;29.29;39.55;93204.94;5043644;28;20060;-72
2023/08/05 09:13:44;;;;;;;12.77;5.75;;;;;;;29.39;39.38;93203.75;5043744;28;20018;-72
2023/08/05 09:16:15;;;;;;;12.55;6.13;;;;;;;29.62;38.26;93203.72;5043857;28;20021;-72
2023/08/05 09:18:51;;;;;;;12.25;6.72;;;;;;;29.85;38.50;93205.19;5041476;28;20028;-73
2023/08/05 09:21:26;;;;;;;19.45;6.85;;;;;;;30.03;37.60;93201.75;5043522;28;20063;-72
2023/08/05 09:23:58;;;;;;;7.70;5.90;;;;;;;30.10;37.03;93201.44;5043559;28;20017;-72
2023/08/05 09:26:28;;;;;;;12.68;5.95;;;;;;;30.25;36.67;93209.88;5043518;28;20096;-72
2023/08/05 09:28:55;;;;;;;10.57;6.28;;;;;;;30.36;36.47;93205.47;5043460;28;20394;-72
2023/08/05 09:31:20;;;;;;;12.00;6.20;;;;;;;30.35;36.93;93203.22;5043472;28;20052;-72
2023/08/05 09:33:46;;;;;;;8.75;6.20;;;;;;;30.27;36.65;93207.44;5043205;28;20022;-72
2023/08/05 09:36:12;;;;;;;14.68;6.68;;;;;;;30.28;36.94;93187.72;5043350;28;20219;-72
2023/08/05 09:38:44;;;;;;;9.30;6.38;;;;;;;30.25;37.41;93201.66;5043245;28;20021;-72
2023/08/05 09:41:11;;;;;;;10.30;6.07;;;;;;;30.31;37.72;93194.34;5043074;28;20243;-72
2023/08/05 09:43:49;;;;;;;11.00;6.70;;;;;;;30.46;37.50;93184.28;5043392;28;20092;-72
2023/08/05 09:46:16;;;;;;;19.17;6.85;;;;;;;30.60;37.04;93180.91;5043288;28;20044;-72
2023/08/05 09:48:43;;;;;;;15.45;6.55;;;;;;;30.78;36.68;93185.66;5042967;28;20021;-72
2023/08/05 09:51:17;;;;;;;11.65;6.70;;;;;;;30.94;36.74;93190.09;5041895;28;20262;-72
2023/08/05 09:53:43;;;;;;;10.00;6.90;;;;;;;31.10;36.71;93182.72;5042918;28;20032;-73
2023/08/05 09:56:12;;;;;;;25.77;6.63;;;;;;;31.26;36.37;93185.13;5042974;28;20057;-73
2023/08/05 09:58:38;;;;;;;16.33;6.70;;;;;;;31.46;36.20;93176.38;5043165;28;20017;-72
2023/08/05 10:01:07;;;;;;;13.38;10.68;;;;;;;31.59;35.74;93176.22;5042957;28;20188;-72
2023/08/05 10:03:35;;;;;;;11.07;6.38;;;;;;;31.64;35.61;93189.34;5042827;28;20063;-72
2023/08/05 10:06:03;;;;;;;20.17;6.82;;;;;;;31.71;35.36;93175.25;5042922;28;20021;-72
2023/08/05 10:08:30;;;;;;;11.05;6.35;;;;;;;31.58;36.11;93166.41;5043047;28;20025;-73
2023/08/05 10:10:56;;;;;;;21.60;6.53;;;;;;;31.61;36.03;93168.25;5042672;28;20052;-72
2023/08/05 10:13:22;;;;;;;11.10;6.13;;;;;;;31.84;36.27;93161.25;5042918;28;20029;-73
2023/08/05 10:15:50;;;;;;;12.10;5.82;;;;;;;32.06;35.95;93172.03;5042946;28;20029;-73
2023/08/05 10:18:17;;;;;;;15.45;5.70;;;;;;;32.25;34.75;93160.88;5042885;28;20060;-72
2023/08/05 10:20:48;;;;;;;10.52;6.30;;;;;;;32.11;35.05;93157.59;5041626;28;20037;-72
2023/08/05 10:23:14;;;;;;;9.13;7.03;;;;;;;32.08;35.06;93169.56;5042914;28;20025;-72
2023/08/05 10:25:47;;;;;;;13.68;6.38;;;;;;;32.30;34.73;93165.75;5042835;28;20025;-72
2023/08/05 10:28:25;;;;;;;15.32;6.10;;;;;;;32.51;34.93;93166.69;5041552;28;20079;-72
2023/08/05 10:30:53;;;;;;;8.80;6.82;;;;;;;32.64;34.25;93161.69;5046967;28;20043;-72
2023/08/05 10:33:19;;;;;;;17.95;6.65;;;;;;;32.79;34.22;93158.94;5046904;28;20075;-73
2023/08/05 10:35:45;;;;;;;15.90;7.00;;;;;;;32.96;34.54;93156.50;5046737;28;20029;-73
2023/08/05 10:38:16;;;;;;;7.40;6.30;;;;;;;33.00;33.41;93157.06;5046379;28;20029;-72
2023/08/05 10:41:03;;;;;;;15.45;5.93;;;;;;;32.87;33.98;93153.81;5046530;28;20342;-72
2023/08/05 10:43:31;;;;;;;16.55;6.07;;;;;;;32.81;34.01;93150.19;5046587;28;20037;-72
2023/08/05 10:46:06;;;;;;;11.27;6.15;;;;;;;32.84;33.83;93152.03;5046648;28;20239;-72
2023/08/05 10:48:34;;;;;;;12.40;6.38;;;;;;;32.75;34.00;93137.06;5046398;28;20237;-72
2023/08/05 10:51:07;;;;;;;14.82;5.95;;;;;;;32.47;34.73;93139.28;5046297;28;20021;-72
2023/08/05 10:53:34;;;;;;;8.60;6.38;;;;;;;32.64;35.30;93130.59;5046381;28;20029;-72
2023/08/05 10:55:59;;;;;;;8.32;6.10;;;;;;;32.83;34.94;93139.44;5046332;28;20230;-72
2023/08/05 10:58:29;;;;;;;13.82;6.13;;;;;;;32.95;34.79;93122.63;5046359;28;20037;-72
2023/08/05 11:01:00;;;;;;;8.20;6.85;;;;;;;33.11;34.95;93123.41;5046158;28;20017;-72
2023/08/05 11:03:45;;;;;;;12.73;6.88;;;;;;;33.28;34.46;93127.22;5046255;28;20315;-72
2023/08/05 11:06:12;;;;;;;16.10;6.47;;;;;;;33.41;34.12;93124.16;5046103;28;20305;-72
2023/08/05 11:08:39;;;;;;;13.15;7.50;;;;;;;33.47;33.71;93119.47;5046101;28;20227;-73
2023/08/05 11:11:09;;;;;;;10.63;6.55;;;;;;;33.28;33.30;93123.69;5045887;28;20041;-72
2023/08/05 11:13:39;;;;;;;11.35;6.63;;;;;;;33.34;34.14;93117.03;5045936;28;20097;-72
2023/08/05 11:16:10;;;;;;;10.65;6.25;;;;;;;33.42;33.99;93119.38;5046101;28;20127;-72
2023/08/05 11:18:37;;;;;;;11.65;6.10;;;;;;;33.59;34.08;93101.06;5045888;28;20033;-72
2023/08/05 11:21:05;;;;;;;11.80;6.40;;;;;;;33.76;34.28;93104.09;5045769;28;20072;-72
2023/08/05 11:23:32;;;;;;;29.45;7.32;;;;;;;33.88;33.23;93093.94;5045884;28;20051;-72
2023/08/05 11:26:00;;;;;;;11.98;6.68;;;;;;;33.98;33.52;93092.56;5045882;28;20033;-72
2023/08/05 11:28:26;;;;;;;11.38;6.38;;;;;;;34.15;33.53;93103.88;5045819;28;20025;-72